Time;durP1;ratioP1;P1;durP2;ratioP2;P2;SDS_P1;SDS_P2;PMS_P1;PMS_P2;Temp;Humidity;BMP_temperature;BMP_pressure;BME280_temperature;BME280_humidity;BME280_pressure;Samples;Min_cycle;Max_cycle;Signal;HPM_P1;HPM_P2
2024/03/14 00:00:03;;;;;;;6.20;3.27;;;13.90;99.90;;;;;;5021176;28;20552;-71
2024/03/14 00:02:29;;;;;;;6.10;3.70;;;13.90;99.90;;;;;;5006876;28;20431;-70
2024/03/14 00:04:56;;;;;;;4.50;3.37;;;14.00;99.90;;;;;;5019483;28;20515;-70
2024/03/14 00:07:22;;;;;;;4.00;3.00;;;14.00;99.90;;;;;;5015628;28;20447;-71
2024/03/14 00:09:48;;;;;;;5.90;2.90;;;14.00;99.90;;;;;;5016273;28;20438;-71
2024/03/14 00:12:16;;;;;;;6.20;3.20;;;14.00;99.90;;;;;;5008696;28;20204;-70
2024/03/14 00:14:50;;;;;;;5.40;3.70;;;14.00;99.90;;;;;;5014745;28;20458;-70
2024/03/14 00:17:18;;;;;;;5.17;3.40;;;14.00;99.90;;;;;;5023946;28;20452;-70
2024/03/14 00:19:44;;;;;;;5.67;3.20;;;14.00;99.90;;;;;;5008937;28;20844;-70
2024/03/14 00:22:10;;;;;;;8.17;3.43;;;14.00;99.90;;;;;;5008203;28;20909;-70
2024/03/14 00:24:37;;;;;;;4.40;2.80;;;14.00;99.90;;;;;;5012157;28;20470;-70
2024/03/14 00:27:03;;;;;;;3.97;3.57;;;14.00;99.90;;;;;;5014337;28;20627;-70
2024/03/14 00:29:32;;;;;;;4.27;3.17;;;14.00;99.90;;;;;;5009157;28;21112;-70
2024/03/14 00:31:58;;;;;;;3.97;3.20;;;14.00;99.90;;;;;;5008856;28;20622;-70
2024/03/14 00:34:24;;;;;;;4.63;3.30;;;13.90;99.90;;;;;;5007530;28;22133;-70
2024/03/14 00:36:50;;;;;;;4.23;3.53;;;13.80;99.90;;;;;;5018998;28;20588;-70
2024/03/14 00:39:16;;;;;;;5.80;4.13;;;13.70;99.90;;;;;;5006575;28;20514;-71
2024/03/14 00:41:42;;;;;;;5.80;3.73;;;13.70;99.90;;;;;;5013210;28;20479;-70
2024/03/14 00:44:08;;;;;;;5.43;3.90;;;13.70;99.90;;;;;;5011177;28;21074;-70
2024/03/14 00:46:34;;;;;;;4.13;3.33;;;13.70;99.90;;;;;;5011151;28;20545;-70
2024/03/14 00:49:00;;;;;;;5.10;3.73;;;13.60;99.90;;;;;;5010056;28;20185;-71
2024/03/14 00:51:25;;;;;;;6.30;4.23;;;13.60;99.90;;;;;;5010249;28;20442;-71
2024/03/14 00:53:53;;;;;;;4.10;3.43;;;13.60;99.90;;;;;;5007518;28;20475;-70
2024/03/14 00:56:20;;;;;;;5.13;4.53;;;13.50;99.90;;;;;;5013274;28;20192;-71
2024/03/14 00:58:47;;;;;;;5.90;4.83;;;13.50;99.90;;;;;;5013109;28;20781;-71
2024/03/14 01:01:13;;;;;;;4.57;4.00;;;13.50;99.90;;;;;;5010542;28;20416;-71
2024/03/14 01:03:39;;;;;;;6.10;4.13;;;13.50;99.90;;;;;;5010714;28;20514;-71
2024/03/14 01:06:11;;;;;;;4.30;3.87;;;13.40;99.90;;;;;;5011338;28;20424;-71
2024/03/14 01:08:37;;;;;;;5.50;4.13;;;13.40;99.90;;;;;;5011090;28;20857;-71
2024/03/14 01:11:03;;;;;;;5.37;4.13;;;13.40;99.90;;;;;;5013949;28;20447;-71
2024/03/14 01:13:29;;;;;;;4.73;3.13;;;13.30;99.90;;;;;;5008009;28;20487;-70
2024/03/14 01:15:55;;;;;;;5.33;3.80;;;13.30;99.90;;;;;;5015892;28;20435;-70
2024/03/14 01:18:20;;;;;;;8.73;4.30;;;13.30;99.90;;;;;;5010973;28;20462;-71
2024/03/14 01:20:48;;;;;;;6.80;4.40;;;13.30;99.90;;;;;;5007114;28;20195;-68
2024/03/14 01:23:14;;;;;;;5.30;3.37;;;13.20;99.90;;;;;;4991126;28;20193;-70
2024/03/14 01:25:40;;;;;;;4.30;3.47;;;13.20;99.90;;;;;;4999977;28;20463;-70
2024/03/14 01:28:07;;;;;;;7.00;4.27;;;13.20;99.90;;;;;;5010983;28;20188;-70
2024/03/14 01:30:33;;;;;;;5.07;3.97;;;13.20;99.90;;;;;;5009439;28;20465;-70
2024/03/14 01:32:59;;;;;;;5.03;3.60;;;13.10;99.90;;;;;;5008634;28;20474;-70
2024/03/14 01:35:24;;;;;;;6.73;4.03;;;13.10;99.90;;;;;;5009487;28;20436;-70
2024/03/14 01:37:51;;;;;;;5.00;4.17;;;13.10;99.90;;;;;;5003216;28;20707;-70
2024/03/14 01:40:17;;;;;;;4.57;3.40;;;13.10;99.90;;;;;;5011229;28;20856;-70
2024/03/14 01:42:43;;;;;;;5.63;4.20;;;13.10;99.90;;;;;;5011805;28;20443;-70
2024/03/14 01:45:14;;;;;;;5.53;3.33;;;13.00;99.90;;;;;;5014255;28;20204;-70
2024/03/14 01:47:42;;;;;;;4.47;3.63;;;13.00;99.90;;;;;;5015760;28;20502;-70
2024/03/14 01:50:08;;;;;;;4.93;3.57;;;13.00;99.90;;;;;;5008087;28;20470;-70
2024/03/14 01:52:37;;;;;;;4.70;3.57;;;13.00;99.90;;;;;;5010003;28;20467;-70
2024/03/14 01:55:03;;;;;;;4.37;3.73;;;13.00;99.90;;;;;;5011098;28;20463;-70
2024/03/14 01:57:30;;;;;;;4.83;4.00;;;13.00;99.90;;;;;;5008586;28;20419;-70
2024/03/14 01:59:58;;;;;;;5.10;4.50;;;12.90;99.90;;;;;;5012100;28;20420;-69
2024/03/14 02:02:27;;;;;;;5.97;4.10;;;12.90;99.90;;;;;;5005734;28;20455;-70
2024/03/14 02:05:10;;;;;;;4.60;3.80;;;12.90;99.90;;;;;;5007607;28;20953;-70
2024/03/14 02:07:39;;;;;;;5.87;3.73;;;12.90;99.90;;;;;;5008052;28;20916;-70
2024/03/14 02:10:06;;;;;;;5.97;3.93;;;12.90;99.90;;;;;;5013171;28;20432;-70
2024/03/14 02:12:33;;;;;;;10.73;4.70;;;12.80;99.90;;;;;;5012993;28;20459;-70
2024/03/14 02:15:01;;;;;;;8.83;4.23;;;12.80;99.90;;;;;;5011874;28;20474;-69
2024/03/14 02:17:27;;;;;;;6.90;4.20;;;12.80;99.90;;;;;;5012406;28;21830;-69
2024/03/14 02:19:52;;;;;;;5.47;4.17;;;12.80;99.90;;;;;;5015286;28;20438;-69
2024/03/14 02:22:21;;;;;;;4.80;4.30;;;12.80;99.90;;;;;;5014776;28;20227;-70
2024/03/14 02:24:48;;;;;;;8.80;4.40;;;12.80;99.90;;;;;;5011037;28;20206;-69
2024/03/14 02:27:14;;;;;;;5.20;4.23;;;12.80;99.90;;;;;;5008964;28;21240;-70
2024/03/14 02:29:40;;;;;;;6.03;4.37;;;12.80;99.90;;;;;;5012936;28;20419;-70
2024/03/14 02:32:06;;;;;;;5.60;3.63;;;12.80;99.90;;;;;;5013934;28;20475;-70
2024/03/14 02:34:31;;;;;;;4.63;4.10;;;12.80;99.90;;;;;;5008855;28;21545;-70
2024/03/14 02:36:57;;;;;;;5.60;4.20;;;12.80;99.90;;;;;;5005995;28;20181;-70
2024/03/14 02:39:22;;;;;;;4.47;3.90;;;12.80;99.90;;;;;;5008671;28;20196;-70
2024/03/14 02:41:50;;;;;;;6.33;4.17;;;12.80;99.90;;;;;;5013678;28;20184;-70
2024/03/14 02:44:17;;;;;;;5.20;4.30;;;12.70;99.90;;;;;;5010571;28;20200;-70
2024/03/14 02:46:45;;;;;;;5.20;4.10;;;12.70;99.90;;;;;;5014774;28;20513;-70
2024/03/14 02:49:13;;;;;;;8.93;4.60;;;12.70;99.90;;;;;;5010125;28;20446;-70
2024/03/14 02:51:39;;;;;;;13.70;4.50;;;12.70;99.90;;;;;;5015370;28;20435;-70
2024/03/14 02:54:05;;;;;;;5.90;3.73;;;12.70;99.90;;;;;;5011109;28;20447;-70
2024/03/14 02:56:31;;;;;;;5.17;4.07;;;12.70;99.90;;;;;;5013232;28;20422;-70
2024/03/14 02:58:57;;;;;;;7.90;4.77;;;12.70;99.90;;;;;;5018374;28;20192;-70
2024/03/14 03:01:22;;;;;;;4.33;3.93;;;12.70;99.90;;;;;;5014998;28;20778;-70
2024/03/14 03:03:48;;;;;;;4.97;4.00;;;12.70;99.90;;;;;;5018222;28;20576;-70
2024/03/14 03:06:15;;;;;;;11.73;4.30;;;12.70;99.90;;;;;;5012438;28;20185;-70
2024/03/14 03:08:42;;;;;;;4.67;3.70;;;12.70;99.90;;;;;;5012632;28;20712;-70
2024/03/14 03:11:09;;;;;;;10.63;5.00;;;12.60;99.90;;;;;;5017283;28;20455;-70
2024/03/14 03:13:34;;;;;;;5.13;3.93;;;12.60;99.90;;;;;;5017751;28;20470;-70
2024/03/14 03:16:04;;;;;;;4.33;3.90;;;12.60;99.90;;;;;;5020471;28;20447;-70
2024/03/14 03:18:30;;;;;;;3.93;3.53;;;12.60;99.90;;;;;;5010652;28;20268;-69
2024/03/14 03:20:55;;;;;;;4.07;3.33;;;12.60;99.90;;;;;;5015556;28;20556;-71
2024/03/14 03:23:21;;;;;;;4.83;3.90;;;12.60;99.90;;;;;;4992309;28;20558;-71
2024/03/14 03:25:46;;;;;;;7.20;3.50;;;12.60;99.90;;;;;;5019890;28;20205;-70
2024/03/14 03:28:13;;;;;;;4.40;3.83;;;12.60;99.90;;;;;;5010062;28;20282;-69
2024/03/14 03:30:40;;;;;;;5.70;3.80;;;12.60;99.90;;;;;;5017068;28;20203;-70
2024/03/14 03:33:11;;;;;;;4.57;3.73;;;12.50;99.90;;;;;;5015280;28;20501;-70
2024/03/14 03:35:37;;;;;;;5.70;3.70;;;12.50;99.90;;;;;;5013401;28;21631;-70
2024/03/14 03:38:06;;;;;;;5.00;4.50;;;12.50;99.90;;;;;;5018163;28;20561;-70
2024/03/14 03:40:35;;;;;;;11.53;4.50;;;12.50;99.90;;;;;;5013884;28;20542;-70
2024/03/14 03:43:02;;;;;;;4.60;3.73;;;12.50;99.90;;;;;;5014896;28;20422;-71
2024/03/14 03:45:29;;;;;;;5.53;3.90;;;12.50;99.90;;;;;;5029528;28;20464;-70
2024/03/14 03:47:55;;;;;;;5.53;3.70;;;12.40;99.90;;;;;;5018400;28;20419;-71
2024/03/14 03:50:20;;;;;;;4.30;3.90;;;12.40;99.90;;;;;;5011490;28;20424;-70
2024/03/14 03:52:46;;;;;;;4.93;3.60;;;12.30;99.90;;;;;;5008649;28;20829;-69
2024/03/14 03:55:16;;;;;;;5.13;3.50;;;12.30;99.90;;;;;;5013983;28;20229;-69
2024/03/14 03:57:43;;;;;;;7.00;3.80;;;12.30;99.90;;;;;;5007430;28;20292;-70
2024/03/14 04:00:32;;;;;;;4.47;3.50;;;12.30;99.90;;;;;;5022159;28;20413;-70
2024/03/14 04:02:58;;;;;;;4.63;3.30;;;12.30;99.90;;;;;;5011534;28;20954;-70
2024/03/14 04:05:25;;;;;;;4.43;3.63;;;12.30;99.90;;;;;;5014773;28;20452;-70
2024/03/14 04:07:52;;;;;;;5.40;4.23;;;12.20;99.90;;;;;;5016472;28;20427;-70
2024/03/14 04:10:17;;;;;;;6.13;4.43;;;12.20;99.90;;;;;;5015823;28;20438;-70
2024/03/14 04:12:44;;;;;;;4.80;3.77;;;12.20;99.90;;;;;;5011307;28;20463;-70
2024/03/14 04:15:10;;;;;;;5.27;4.10;;;12.20;99.90;;;;;;5014828;28;20279;-69
2024/03/14 04:17:36;;;;;;;5.50;4.27;;;12.20;99.90;;;;;;5013055;28;20462;-69
2024/03/14 04:20:10;;;;;;;8.90;4.37;;;12.10;99.90;;;;;;5014862;28;20509;-69
2024/03/14 04:22:36;;;;;;;5.30;4.00;;;12.10;99.90;;;;;;5007219;28;20810;-70
2024/03/14 04:25:10;;;;;;;5.67;3.77;;;12.10;99.90;;;;;;5009757;28;20443;-70
2024/03/14 04:27:36;;;;;;;4.10;3.40;;;12.10;99.90;;;;;;5010499;28;20436;-69
2024/03/14 04:30:02;;;;;;;4.97;3.90;;;12.00;99.90;;;;;;5010638;28;20473;-69
2024/03/14 04:32:27;;;;;;;3.80;3.30;;;11.90;99.90;;;;;;5009081;28;20463;-69
2024/03/14 04:34:53;;;;;;;3.63;3.10;;;11.90;99.90;;;;;;5012234;28;20295;-70
2024/03/14 04:37:18;;;;;;;4.37;3.47;;;11.90;99.90;;;;;;5011830;28;20212;-69
2024/03/14 04:39:44;;;;;;;3.73;3.33;;;11.80;99.90;;;;;;5013039;28;20243;-70
2024/03/14 04:42:10;;;;;;;5.60;4.20;;;11.80;99.90;;;;;;5013051;28;20191;-70
2024/03/14 04:44:36;;;;;;;5.40;3.73;;;11.80;99.90;;;;;;5012959;28;20295;-70
2024/03/14 04:47:03;;;;;;;5.07;3.90;;;11.80;99.90;;;;;;5016478;28;20627;-70
2024/03/14 04:49:32;;;;;;;6.20;3.47;;;11.80;99.90;;;;;;5009933;28;20556;-71
2024/03/14 04:51:57;;;;;;;5.10;3.87;;;11.80;99.90;;;;;;5010847;28;20433;-70
2024/03/14 04:54:24;;;;;;;4.83;3.87;;;11.70;99.90;;;;;;5004742;28;20506;-71
2024/03/14 04:56:50;;;;;;;5.53;3.73;;;11.70;99.90;;;;;;5016189;28;20177;-70
2024/03/14 04:59:15;;;;;;;5.70;4.00;;;11.70;99.90;;;;;;5005593;28;20416;-70
2024/03/14 05:01:42;;;;;;;6.50;4.13;;;11.70;99.90;;;;;;5004554;28;20433;-70
2024/03/14 05:04:08;;;;;;;7.00;3.70;;;11.60;99.90;;;;;;5028501;28;20205;-70
2024/03/14 05:06:33;;;;;;;7.43;4.10;;;11.60;99.90;;;;;;5008216;28;20426;-70
2024/03/14 05:09:00;;;;;;;4.50;3.60;;;11.60;99.90;;;;;;5013801;28;20187;-70
2024/03/14 05:11:25;;;;;;;7.20;3.97;;;11.60;99.90;;;;;;5009385;28;20196;-69
2024/03/14 05:13:56;;;;;;;5.50;4.20;;;11.60;99.90;;;;;;5009836;28;20891;-69
2024/03/14 05:16:22;;;;;;;8.83;4.87;;;11.60;99.90;;;;;;5013968;28;20184;-70
2024/03/14 05:18:48;;;;;;;6.70;4.30;;;11.60;99.90;;;;;;5009674;28;20510;-70
2024/03/14 05:21:15;;;;;;;10.70;4.83;;;11.60;99.90;;;;;;5017986;28;20610;-70
2024/03/14 05:23:41;;;;;;;7.87;4.67;;;11.60;99.90;;;;;;5007373;28;20180;-70
2024/03/14 05:26:07;;;;;;;6.60;3.80;;;11.50;99.90;;;;;;5016643;28;20824;-70
2024/03/14 05:28:35;;;;;;;8.23;5.23;;;11.50;99.90;;;;;;5007573;28;20189;-69
2024/03/14 05:31:01;;;;;;;4.77;4.00;;;11.50;99.90;;;;;;5016182;28;20832;-69
2024/03/14 05:33:27;;;;;;;6.03;4.30;;;11.40;99.90;;;;;;5014167;28;20467;-70
2024/03/14 05:35:53;;;;;;;5.17;4.63;;;11.40;99.90;;;;;;5014222;28;20201;-69
2024/03/14 05:38:19;;;;;;;5.90;5.03;;;11.40;99.90;;;;;;5012784;28;20188;-70
2024/03/14 05:40:45;;;;;;;5.40;3.70;;;11.40;99.90;;;;;;5015558;28;21000;-70
2024/03/14 05:43:11;;;;;;;6.70;4.40;;;11.40;99.90;;;;;;5010878;28;20186;-70
2024/03/14 05:45:37;;;;;;;9.80;4.27;;;11.40;99.90;;;;;;5013590;28;20598;-70
2024/03/14 05:48:09;;;;;;;9.00;4.27;;;11.30;99.90;;;;;;5012512;28;20280;-70
2024/03/14 05:50:35;;;;;;;4.67;4.13;;;11.30;99.90;;;;;;5009465;28;20565;-69
2024/03/14 05:53:00;;;;;;;5.80;4.27;;;11.30;99.90;;;;;;5011367;28;20470;-69
2024/03/14 05:55:26;;;;;;;4.50;3.93;;;11.40;99.90;;;;;;5009176;28;20445;-69
2024/03/14 05:57:52;;;;;;;6.53;4.43;;;11.30;99.90;;;;;;5006264;28;20809;-69
2024/03/14 06:00:20;;;;;;;4.20;3.70;;;11.30;99.90;;;;;;5010053;28;20259;-70
2024/03/14 06:02:46;;;;;;;6.73;4.13;;;11.30;99.90;;;;;;5011524;28;20431;-70
2024/03/14 06:05:12;;;;;;;5.83;3.93;;;11.30;99.90;;;;;;5010218;28;20439;-70
2024/03/14 06:07:39;;;;;;;5.57;4.20;;;11.30;99.90;;;;;;5006830;28;20465;-70
2024/03/14 06:10:06;;;;;;;5.67;4.70;;;11.30;99.90;;;;;;5011184;28;20438;-70
2024/03/14 06:12:32;;;;;;;7.70;3.80;;;11.30;99.90;;;;;;5012524;28;20463;-70
2024/03/14 06:14:58;;;;;;;6.23;4.50;;;11.30;99.90;;;;;;5010776;28;20490;-70
2024/03/14 06:17:25;;;;;;;4.57;3.80;;;11.30;99.90;;;;;;5009812;28;20437;-70
2024/03/14 06:19:51;;;;;;;4.67;3.90;;;11.30;99.90;;;;;;5010724;28;20184;-71
2024/03/14 06:22:16;;;;;;;5.43;4.20;;;11.30;99.90;;;;;;5007313;28;20467;-70
2024/03/14 06:24:45;;;;;;;12.00;4.83;;;11.30;99.90;;;;;;5010890;28;20212;-70
2024/03/14 06:27:12;;;;;;;6.13;4.57;;;11.20;99.90;;;;;;5012065;28;20639;-70
2024/03/14 06:29:38;;;;;;;5.03;4.53;;;11.20;99.90;;;;;;5008498;28;20854;-71
2024/03/14 06:32:04;;;;;;;5.60;5.00;;;11.20;99.90;;;;;;5018110;28;20447;-70
2024/03/14 06:34:30;;;;;;;5.23;4.20;;;11.20;99.90;;;;;;5022639;28;20455;-69
2024/03/14 06:36:57;;;;;;;5.90;4.73;;;11.30;99.90;;;;;;5024466;28;20521;-70
2024/03/14 06:39:25;;;;;;;5.10;4.53;;;11.30;99.90;;;;;;5025524;28;21225;-69
2024/03/14 06:41:52;;;;;;;6.20;4.40;;;11.20;99.90;;;;;;5025426;28;20445;-69
2024/03/14 06:44:18;;;;;;;6.60;4.07;;;11.20;99.90;;;;;;5022091;28;20442;-70
2024/03/14 06:46:44;;;;;;;5.30;4.80;;;11.20;99.90;;;;;;5016252;28;20435;-69
2024/03/14 06:49:12;;;;;;;6.17;4.63;;;11.20;99.90;;;;;;5013949;28;20942;-71
2024/03/14 06:51:43;;;;;;;5.70;4.50;;;11.20;99.90;;;;;;5014456;28;20181;-69
2024/03/14 06:54:12;;;;;;;4.50;4.07;;;11.20;99.90;;;;;;5012577;28;20474;-70
2024/03/14 06:56:38;;;;;;;5.00;3.80;;;11.20;99.90;;;;;;5011908;28;20555;-69
2024/03/14 06:59:06;;;;;;;4.97;3.70;;;11.20;99.90;;;;;;5010159;28;20415;-69
2024/03/14 07:01:32;;;;;;;4.97;4.10;;;11.20;99.90;;;;;;5015397;28;20172;-69
2024/03/14 07:04:04;;;;;;;8.83;4.07;;;11.20;99.90;;;;;;5014839;28;20516;-69
2024/03/14 07:06:31;;;;;;;6.20;4.07;;;11.30;99.90;;;;;;5019192;28;20318;-69
2024/03/14 07:08:58;;;;;;;5.63;4.80;;;11.20;99.90;;;;;;5017549;28;20539;-69
2024/03/14 07:11:25;;;;;;;6.37;4.60;;;11.30;99.90;;;;;;5021347;28;20951;-69
2024/03/14 07:13:59;;;;;;;9.23;4.57;;;11.30;99.90;;;;;;5018281;28;20475;-69
2024/03/14 07:16:25;;;;;;;6.60;4.80;;;11.40;99.90;;;;;;5015467;28;20469;-70
2024/03/14 07:18:55;;;;;;;5.10;4.60;;;11.40;99.90;;;;;;5019428;28;20426;-70
2024/03/14 07:21:24;;;;;;;8.40;5.53;;;11.40;99.90;;;;;;5022280;28;20419;-70
2024/03/14 07:23:50;;;;;;;5.80;4.23;;;11.40;99.90;;;;;;5021491;28;20447;-70
2024/03/14 07:26:32;;;;;;;7.07;4.13;;;11.40;99.90;;;;;;5010694;28;20450;-70
2024/03/14 07:28:58;;;;;;;8.53;4.60;;;11.50;99.90;;;;;;5013104;28;20796;-70
2024/03/14 07:31:28;;;;;;;5.40;4.40;;;11.50;99.90;;;;;;5014564;28;20435;-70
2024/03/14 07:33:54;;;;;;;5.37;4.43;;;11.50;99.90;;;;;;5013745;28;20540;-70
2024/03/14 07:36:20;;;;;;;5.47;4.17;;;11.50;99.90;;;;;;5018537;28;20411;-70
2024/03/14 07:38:48;;;;;;;5.17;4.37;;;11.60;99.90;;;;;;5010290;28;20497;-70
2024/03/14 07:41:20;;;;;;;5.37;4.03;;;11.50;99.90;;;;;;5014443;28;20837;-69
2024/03/14 07:43:46;;;;;;;6.57;5.33;;;11.40;99.90;;;;;;5008839;28;20420;-70
2024/03/14 07:46:12;;;;;;;5.50;4.17;;;11.50;99.90;;;;;;5014026;28;20419;-70
2024/03/14 07:48:38;;;;;;;6.33;4.70;;;11.50;99.90;;;;;;5010211;28;20211;-70
2024/03/14 07:51:05;;;;;;;4.30;3.80;;;11.60;99.90;;;;;;5011270;28;20197;-70
2024/03/14 07:53:33;;;;;;;5.63;5.07;;;11.60;99.90;;;;;;5008495;28;20510;-70
2024/03/14 07:55:59;;;;;;;7.23;5.17;;;11.70;99.90;;;;;;5014037;28;20450;-70
2024/03/14 07:58:25;;;;;;;6.50;5.10;;;11.80;99.90;;;;;;5017862;28;20913;-70
2024/03/14 08:00:52;;;;;;;5.57;4.80;;;11.80;99.90;;;;;;5012744;28;20416;-70
2024/03/14 08:03:18;;;;;;;6.20;4.97;;;11.80;99.90;;;;;;5015370;28;20796;-70
2024/03/14 08:05:50;;;;;;;8.03;6.30;;;11.90;99.90;;;;;;5013749;28;20463;-70
2024/03/14 08:08:19;;;;;;;6.33;5.50;;;11.90;99.90;;;;;;5011760;28;20975;-70
2024/03/14 08:10:45;;;;;;;10.80;5.60;;;11.90;99.90;;;;;;5019149;28;20427;-70
2024/03/14 08:13:17;;;;;;;6.30;5.30;;;11.80;99.90;;;;;;5015674;28;20960;-70
2024/03/14 08:15:52;;;;;;;8.50;5.40;;;11.90;99.90;;;;;;5025441;28;21036;-70
2024/03/14 08:18:21;;;;;;;5.30;4.80;;;12.00;99.90;;;;;;5022200;28;20429;-70
2024/03/14 08:20:47;;;;;;;5.23;4.63;;;12.10;99.90;;;;;;5020329;28;20434;-71
2024/03/14 08:23:15;;;;;;;6.70;4.53;;;12.20;99.90;;;;;;5020418;28;20423;-70
2024/03/14 08:25:46;;;;;;;11.03;5.07;;;12.20;99.90;;;;;;5009994;28;20444;-70
2024/03/14 08:28:11;;;;;;;6.80;5.30;;;12.20;99.90;;;;;;5008876;28;20452;-70
2024/03/14 08:30:39;;;;;;;5.87;5.27;;;12.30;99.90;;;;;;5015463;28;20478;-70
2024/03/14 08:33:05;;;;;;;9.03;5.40;;;12.30;99.90;;;;;;5023096;28;20471;-70
2024/03/14 08:35:32;;;;;;;6.03;5.33;;;12.30;99.90;;;;;;5024518;28;20521;-69
2024/03/14 08:37:58;;;;;;;6.23;5.37;;;12.30;99.90;;;;;;5023258;28;20473;-70
2024/03/14 08:40:23;;;;;;;5.57;4.97;;;12.30;99.90;;;;;;5015928;28;20887;-69
2024/03/14 08:42:49;;;;;;;5.70;4.83;;;12.40;99.90;;;;;;5013069;28;20737;-69
2024/03/14 08:45:15;;;;;;;5.20;4.70;;;12.40;99.90;;;;;;5019729;28;20275;-70
2024/03/14 08:47:42;;;;;;;7.10;5.00;;;12.40;99.90;;;;;;5021733;28;20431;-70
2024/03/14 08:50:11;;;;;;;8.13;5.10;;;12.40;99.90;;;;;;5018874;28;20438;-70
2024/03/14 08:52:39;;;;;;;5.60;4.97;;;12.40;99.90;;;;;;5015036;28;20478;-70
2024/03/14 08:55:23;;;;;;;5.23;4.70;;;12.30;99.90;;;;;;5008257;28;20456;-71
2024/03/14 08:57:52;;;;;;;14.70;4.73;;;12.40;99.90;;;;;;5009297;28;20427;-70
2024/03/14 09:00:21;;;;;;;4.67;4.23;;;12.40;99.90;;;;;;5013663;28;20471;-70
2024/03/14 09:02:50;;;;;;;8.13;4.73;;;12.60;99.90;;;;;;5013250;28;20435;-70
2024/03/14 09:05:16;;;;;;;5.57;5.00;;;12.70;99.90;;;;;;5011579;28;20470;-70
2024/03/14 09:07:45;;;;;;;7.00;4.83;;;12.70;99.90;;;;;;5016006;28;20432;-70
2024/03/14 09:10:23;;;;;;;6.37;5.23;;;12.70;99.90;;;;;;5010344;28;20427;-70
2024/03/14 09:12:52;;;;;;;5.37;4.83;;;12.80;99.90;;;;;;5006777;28;21075;-71
2024/03/14 09:15:22;;;;;;;8.83;5.17;;;12.80;99.90;;;;;;5011293;28;20436;-71
2024/03/14 09:17:48;;;;;;;5.90;4.93;;;12.90;99.90;;;;;;5013189;28;20817;-71
2024/03/14 09:20:16;;;;;;;5.30;4.53;;;12.90;99.90;;;;;;5013750;28;20423;-71
2024/03/14 09:22:44;;;;;;;6.77;5.70;;;12.90;99.90;;;;;;5014117;28;20480;-71
2024/03/14 09:25:12;;;;;;;6.07;4.67;;;13.00;99.90;;;;;;5008055;28;21022;-71
2024/03/14 09:27:38;;;;;;;6.03;5.20;;;13.10;99.90;;;;;;5012143;28;20451;-71
2024/03/14 09:30:08;;;;;;;6.00;5.50;;;13.10;99.90;;;;;;5013042;28;20526;-71
2024/03/14 09:32:37;;;;;;;5.77;5.17;;;13.20;99.90;;;;;;5010235;28;20463;-70
2024/03/14 09:35:15;;;;;;;7.70;5.77;;;13.30;99.90;;;;;;5011031;28;20455;-70
2024/03/14 09:37:45;;;;;;;7.10;5.80;;;13.40;99.90;;;;;;5006655;28;20443;-71
2024/03/14 09:40:14;;;;;;;6.60;5.47;;;13.30;99.90;;;;;;5012596;28;20442;-71
2024/03/14 09:42:47;;;;;;;7.80;5.60;;;13.40;99.90;;;;;;5010494;28;20430;-71
2024/03/14 09:45:13;;;;;;;8.17;6.13;;;13.50;99.90;;;;;;5006801;28;20468;-70
2024/03/14 09:47:39;;;;;;;6.17;5.37;;;13.50;99.90;;;;;;5008749;28;20505;-71
2024/03/14 09:50:16;;;;;;;5.67;5.07;;;13.60;99.90;;;;;;5013407;28;20535;-71
2024/03/14 09:52:43;;;;;;;6.43;5.30;;;13.60;99.90;;;;;;5009224;28;20894;-70
2024/03/14 09:55:12;;;;;;;5.77;5.20;;;13.70;99.90;;;;;;5007791;28;20969;-71
2024/03/14 09:57:38;;;;;;;6.17;5.57;;;13.70;99.90;;;;;;5012533;28;20440;-70
2024/03/14 10:00:12;;;;;;;6.83;6.20;;;13.80;99.90;;;;;;5013298;28;20433;-71
2024/03/14 10:02:40;;;;;;;5.93;5.33;;;13.90;99.90;;;;;;5009727;28;20849;-71
2024/03/14 10:05:12;;;;;;;8.03;6.03;;;13.90;99.90;;;;;;5006104;28;20468;-71
2024/03/14 10:07:39;;;;;;;10.63;6.33;;;14.00;99.90;;;;;;5010262;28;20430;-70
2024/03/14 10:10:08;;;;;;;7.10;5.30;;;14.10;99.90;;;;;;5005754;28;20538;-70
2024/03/14 10:12:34;;;;;;;6.60;5.93;;;14.20;99.90;;;;;;5012597;28;21149;-70
2024/03/14 10:15:01;;;;;;;6.13;5.20;;;14.10;99.90;;;;;;5011020;28;20500;-70
2024/03/14 10:17:31;;;;;;;7.40;5.87;;;14.20;99.90;;;;;;5006425;28;21029;-70
2024/03/14 10:20:01;;;;;;;5.47;4.80;;;14.30;99.90;;;;;;5006889;28;20443;-70
2024/03/14 10:22:27;;;;;;;6.80;5.70;;;14.40;99.90;;;;;;5027078;28;20452;-70
2024/03/14 10:24:53;;;;;;;5.40;4.77;;;14.50;99.90;;;;;;5013001;28;20450;-69
2024/03/14 10:27:19;;;;;;;6.40;5.70;;;14.50;99.90;;;;;;5010279;28;20902;-70
2024/03/14 10:29:45;;;;;;;13.13;5.50;;;14.60;99.90;;;;;;5011104;28;20284;-70
2024/03/14 10:32:12;;;;;;;6.03;3.97;;;14.70;99.90;;;;;;5008134;28;20219;-71
2024/03/14 10:34:38;;;;;;;5.20;4.30;;;14.80;99.90;;;;;;5011751;28;20483;-70
2024/03/14 10:37:15;;;;;;;7.13;5.00;;;14.80;99.90;;;;;;5012986;28;20761;-70
2024/03/14 10:39:51;;;;;;;5.03;4.53;;;14.90;99.90;;;;;;5013564;28;20424;-70
2024/03/14 10:42:22;;;;;;;6.30;5.33;;;14.90;99.90;;;;;;5015746;28;20428;-70
2024/03/14 10:44:48;;;;;;;6.90;4.80;;;14.90;99.90;;;;;;5012029;28;20482;-70
2024/03/14 10:47:15;;;;;;;7.43;5.07;;;14.90;99.90;;;;;;5010218;28;21097;-70
2024/03/14 10:49:42;;;;;;;5.87;5.30;;;15.00;99.90;;;;;;5011473;28;20497;-70
2024/03/14 10:52:14;;;;;;;6.60;5.53;;;15.10;99.90;;;;;;5009799;28;20685;-69
2024/03/14 10:54:44;;;;;;;5.70;4.47;;;15.00;99.90;;;;;;5006803;28;20440;-70
2024/03/14 10:57:12;;;;;;;7.90;4.53;;;15.00;99.90;;;;;;5013306;28;20415;-70
2024/03/14 10:59:41;;;;;;;11.40;5.20;;;14.90;99.90;;;;;;5011809;28;21320;-71
2024/03/14 11:02:13;;;;;;;4.20;3.50;;;15.00;99.90;;;;;;5010634;28;20438;-70
2024/03/14 11:04:39;;;;;;;3.57;2.83;;;15.20;99.90;;;;;;5008199;28;20530;-70
2024/03/14 11:07:08;;;;;;;2.50;1.97;;;15.30;99.90;;;;;;5008991;28;20510;-70
2024/03/14 11:09:58;;;;;;;2.87;1.70;;;15.40;99.90;;;;;;5010578;28;20427;-70
2024/03/14 11:12:29;;;;;;;2.70;2.03;;;15.40;99.90;;;;;;5006512;28;20471;-70
2024/03/14 11:15:06;;;;;;;3.30;2.30;;;15.50;99.90;;;;;;5012080;28;20518;-71
2024/03/14 11:17:35;;;;;;;3.80;2.60;;;15.60;99.90;;;;;;5011937;28;20457;-70
2024/03/14 11:20:07;;;;;;;3.97;3.43;;;15.60;99.90;;;;;;5011212;28;20463;-70
2024/03/14 11:22:34;;;;;;;3.43;2.80;;;15.70;99.90;;;;;;5019061;28;20419;-71
2024/03/14 11:25:01;;;;;;;3.80;3.17;;;15.70;99.90;;;;;;5010524;28;20436;-70
2024/03/14 11:27:28;;;;;;;4.03;3.07;;;15.90;99.90;;;;;;5015210;28;20447;-70
2024/03/14 11:29:54;;;;;;;5.90;3.30;;;15.90;99.90;;;;;;5013728;28;20412;-70
2024/03/14 11:32:24;;;;;;;4.60;3.90;;;16.00;99.90;;;;;;5014989;28;20524;-70
2024/03/14 11:34:50;;;;;;;5.70;4.27;;;16.10;99.90;;;;;;5014592;28;20211;-70
2024/03/14 11:37:17;;;;;;;7.07;5.77;;;16.10;99.90;;;;;;5029739;28;20539;-70
2024/03/14 11:39:47;;;;;;;5.50;4.30;;;16.20;99.90;;;;;;5011386;28;20422;-69
2024/03/14 11:42:16;;;;;;;6.23;3.53;;;16.30;99.90;;;;;;5014236;28;20420;-71
2024/03/14 11:44:47;;;;;;;4.83;4.33;;;16.40;99.90;;;;;;5010828;28;20448;-71
2024/03/14 11:47:14;;;;;;;8.83;7.93;;;16.60;99.90;;;;;;5019097;28;20419;-71
2024/03/14 11:49:43;;;;;;;4.10;3.60;;;16.70;99.90;;;;;;5011115;28;20909;-73
2024/03/14 11:52:11;;;;;;;4.40;3.87;;;16.80;99.90;;;;;;5013958;28;20428;-73
2024/03/14 11:54:42;;;;;;;7.70;3.60;;;16.90;99.90;;;;;;5011852;28;20447;-73
2024/03/14 11:57:08;;;;;;;3.80;3.17;;;17.00;99.90;;;;;;5015764;28;20440;-72
2024/03/14 11:59:38;;;;;;;2.80;2.50;;;17.20;99.90;;;;;;5017010;28;20578;-71
2024/03/14 12:02:03;;;;;;;3.20;2.80;;;17.40;99.90;;;;;;5013797;28;20544;-70
2024/03/14 12:04:29;;;;;;;2.93;2.53;;;17.60;99.90;;;;;;5009537;28;20514;-73
2024/03/14 12:06:55;;;;;;;2.63;2.20;;;17.90;99.90;;;;;;5019081;28;20180;-73
2024/03/14 12:09:21;;;;;;;3.83;2.50;;;18.20;99.90;;;;;;5012411;28;20270;-72
2024/03/14 12:11:48;;;;;;;2.80;2.20;;;19.50;99.90;;;;;;5018077;28;20283;-73
2024/03/14 12:14:17;;;;;;;2.20;1.90;;;21.60;99.90;;;;;;5015319;28;20529;-72
2024/03/14 12:16:44;;;;;;;3.37;2.60;;;22.70;99.90;;;;;;5007838;28;20494;-73
2024/03/14 12:19:13;;;;;;;2.40;2.10;;;23.60;99.90;;;;;;5009998;28;20431;-73
2024/03/14 12:21:39;;;;;;;2.27;2.00;;;25.80;99.90;;;;;;5011086;28;20440;-74
2024/03/14 12:24:05;;;;;;;3.40;2.50;;;26.90;99.90;;;;;;5011139;28;20999;-73
2024/03/14 12:26:31;;;;;;;2.97;2.67;;;28.20;98.90;;;;;;5007460;28;20208;-74
2024/03/14 12:28:58;;;;;;;2.93;2.53;;;29.50;94.80;;;;;;5013539;28;20279;-73
2024/03/14 12:31:24;;;;;;;3.10;2.60;;;31.60;89.30;;;;;;5014776;28;20452;-74
2024/03/14 12:33:50;;;;;;;2.57;2.37;;;32.90;75.50;;;;;;5012039;28;20558;-74
2024/03/14 12:36:18;;;;;;;2.57;2.33;;;33.10;65.30;;;;;;5016094;28;20276;-72
2024/03/14 12:38:51;;;;;;;2.33;2.13;;;34.50;58.70;;;;;;5008398;28;20435;-72
2024/03/14 12:41:17;;;;;;;2.70;2.20;;;35.20;55.90;;;;;;5014707;28;21028;-73
2024/03/14 12:43:43;;;;;;;2.40;2.20;;;35.40;51.20;;;;;;5007653;28;20506;-73
2024/03/14 12:46:11;;;;;;;2.53;2.33;;;35.60;49.80;;;;;;5010918;28;20185;-72